Time;durP1;ratioP1;P1;durP2;ratioP2;P2;SDS_P1;SDS_P2;PMS_P1;PMS_P2;Temp;Humidity;BMP_temperature;BMP_pressure;BME280_temperature;BME280_humidity;BME280_pressure;Samples;Min_cycle;Max_cycle;Signal;HPM_P1;HPM_P2
2023/03/12 00:01:58;;;;;;;2.03;1.83;;;;;;;;;;5025939;28;20034;-39
2023/03/12 00:04:24;;;;;;;1.50;1.40;;;;;;;;;;5039032;28;20034;-42
2023/03/12 00:06:59;;;;;;;1.70;1.60;;;;;;;;;;5030090;28;20079;-38
2023/03/12 00:09:24;;;;;;;2.33;1.60;;;;;;;;;;5035376;28;20049;-38
2023/03/12 00:11:50;;;;;;;3.03;1.52;;;;;;;;;;5034192;28;20045;-38
2023/03/12 00:14:15;;;;;;;1.63;1.52;;;;;;;;;;5036279;28;20025;-38
2023/03/12 00:16:40;;;;;;;1.50;1.40;;;;;;;;;;5033789;28;21229;-38
2023/03/12 00:19:06;;;;;;;1.90;1.80;;;;;;;;;;5033475;28;20093;-38
2023/03/12 00:21:31;;;;;;;2.42;1.88;;;;;;;;;;5033578;28;20091;-38
2023/03/12 00:23:57;;;;;;;2.40;1.80;;;;;;;;;;5038976;28;20029;-39
2023/03/12 00:26:28;;;;;;;1.95;1.75;;;;;;;;;;5034974;28;20098;-39
2023/03/12 00:28:54;;;;;;;1.63;1.55;;;;;;;;;;5031896;28;20108;-39
2023/03/12 00:31:34;;;;;;;1.77;1.67;;;;;;;;;;5031852;28;20622;-39
2023/03/12 00:34:01;;;;;;;2.35;1.73;;;;;;;;;;5026114;28;20032;-39
2023/03/12 00:36:29;;;;;;;1.70;1.60;;;;;;;;;;5036557;28;20042;-38
2023/03/12 00:38:58;;;;;;;2.35;1.92;;;;;;;;;;5036608;28;20033;-38
2023/03/12 00:41:24;;;;;;;1.83;1.73;;;;;;;;;;5030281;28;20037;-38
2023/03/12 00:43:51;;;;;;;1.58;1.50;;;;;;;;;;5045338;28;20409;-38
2023/03/12 00:46:17;;;;;;;1.65;1.55;;;;;;;;;;5032342;28;20096;-40
2023/03/12 00:48:43;;;;;;;1.70;1.60;;;;;;;;;;5029404;28;20032;-39
2023/03/12 00:51:09;;;;;;;1.67;1.58;;;;;;;;;;5033418;28;20033;-38
2023/03/12 00:53:35;;;;;;;1.98;1.70;;;;;;;;;;5031539;28;20537;-39
2023/03/12 00:56:09;;;;;;;1.75;1.65;;;;;;;;;;5031927;28;20116;-40
2023/03/12 00:58:35;;;;;;;1.70;1.60;;;;;;;;;;5033566;28;20029;-42
2023/03/12 01:01:00;;;;;;;1.75;1.65;;;;;;;;;;5035367;28;20031;-38
2023/03/12 01:03:26;;;;;;;1.70;1.60;;;;;;;;;;5032156;28;20029;-39
2023/03/12 01:05:54;;;;;;;4.13;2.65;;;;;;;;;;5029319;28;20021;-39
2023/03/12 01:08:29;;;;;;;3.80;2.65;;;;;;;;;;5030522;28;20398;-39
2023/03/12 01:10:55;;;;;;;4.30;3.10;;;;;;;;;;5030751;28;20029;-39
2023/03/12 01:13:20;;;;;;;3.85;2.60;;;;;;;;;;5035522;28;20052;-39
2023/03/12 01:15:46;;;;;;;2.38;2.10;;;;;;;;;;5031651;28;20100;-39
2023/03/12 01:18:11;;;;;;;3.28;2.42;;;;;;;;;;5030334;28;20048;-38
2023/03/12 01:20:46;;;;;;;2.88;2.33;;;;;;;;;;5026003;28;20040;-38
2023/03/12 01:23:12;;;;;;;2.35;1.85;;;;;;;;;;5032387;28;20048;-39
2023/03/12 01:25:37;;;;;;;2.38;1.90;;;;;;;;;;5035384;28;20033;-38
2023/03/12 01:28:03;;;;;;;1.90;1.80;;;;;;;;;;5035762;28;20099;-39
2023/03/12 01:30:28;;;;;;;2.28;2.08;;;;;;;;;;5033414;28;20025;-39
2023/03/12 01:33:03;;;;;;;2.80;2.55;;;;;;;;;;5035151;28;20398;-38
2023/03/12 01:35:28;;;;;;;2.35;1.70;;;;;;;;;;5030313;28;20036;-38
2023/03/12 01:37:54;;;;;;;1.63;1.52;;;;;;;;;;5027401;28;20114;-38
2023/03/12 01:40:24;;;;;;;1.70;1.60;;;;;;;;;;5032477;28;20040;-38
2023/03/12 01:42:55;;;;;;;3.75;1.85;;;;;;;;;;5027597;28;20037;-40
2023/03/12 01:45:58;;;;;;;1.58;1.48;;;;;;;;;;5031968;28;20811;-39
2023/03/12 01:48:30;;;;;;;1.58;1.48;;;;;;;;;;5030708;28;20128;-38
2023/03/12 01:50:55;;;;;;;4.40;1.67;;;;;;;;;;5034083;28;20441;-39
2023/03/12 01:53:22;;;;;;;1.92;1.77;;;;;;;;;;5033851;28;20029;-41
2023/03/12 01:55:47;;;;;;;2.30;1.83;;;;;;;;;;5027062;28;20067;-39
2023/03/12 01:58:14;;;;;;;1.73;1.63;;;;;;;;;;5035692;28;20061;-39
2023/03/12 02:00:45;;;;;;;1.50;1.40;;;;;;;;;;5031146;28;20028;-38
2023/03/12 02:03:12;;;;;;;2.83;1.40;;;;;;;;;;5035314;28;20036;-39
2023/03/12 02:06:18;;;;;;;1.50;1.40;;;;;;;;;;5032685;28;20031;-39
2023/03/12 02:08:54;;;;;;;1.67;1.58;;;;;;;;;;4992388;28;20061;-39
2023/03/12 02:11:19;;;;;;;2.13;1.90;;;;;;;;;;4992656;28;20050;-39
2023/03/12 02:13:45;;;;;;;1.80;1.70;;;;;;;;;;4983747;28;20042;-39
2023/03/12 02:16:10;;;;;;;1.70;1.60;;;;;;;;;;4991680;28;20042;-39
2023/03/12 02:18:35;;;;;;;1.73;1.63;;;;;;;;;;4993123;28;20742;-39
2023/03/12 02:21:12;;;;;;;1.50;1.50;;;;;;;;;;4989904;28;20038;-38
2023/03/12 02:24:02;;;;;;;1.65;1.55;;;;;;;;;;4994845;28;20596;-38
2023/03/12 02:26:29;;;;;;;2.38;1.92;;;;;;;;;;4994100;28;20089;-39
2023/03/12 02:28:57;;;;;;;1.65;1.55;;;;;;;;;;4994883;28;20034;-39
2023/03/12 02:31:36;;;;;;;1.60;1.50;;;;;;;;;;4992887;28;20499;-39
2023/03/12 02:34:02;;;;;;;2.13;1.50;;;;;;;;;;4990728;28;20038;-44
2023/03/12 02:36:28;;;;;;;1.70;1.60;;;;;;;;;;4994360;28;20403;-38
2023/03/12 02:38:56;;;;;;;1.65;1.55;;;;;;;;;;5005146;28;20516;-38
2023/03/12 02:41:29;;;;;;;1.83;1.73;;;;;;;;;;5028814;28;20414;-38
2023/03/12 02:43:57;;;;;;;1.90;1.80;;;;;;;;;;5033639;28;20496;-39
2023/03/12 02:46:23;;;;;;;5.57;1.85;;;;;;;;;;5034174;28;20069;-39
2023/03/12 02:48:55;;;;;;;1.70;1.60;;;;;;;;;;5028395;28;20068;-40
2023/03/12 02:51:21;;;;;;;1.75;1.65;;;;;;;;;;5028901;28;20081;-38
2023/03/12 02:53:48;;;;;;;1.80;1.70;;;;;;;;;;5031167;28;20063;-39
2023/03/12 02:56:14;;;;;;;2.10;2.00;;;;;;;;;;5031904;28;20514;-38
2023/03/12 02:58:41;;;;;;;2.13;1.75;;;;;;;;;;5032638;28;20040;-38
2023/03/12 03:01:13;;;;;;;6.03;2.90;;;;;;;;;;5034066;28;20024;-38
2023/03/12 03:03:38;;;;;;;1.80;1.70;;;;;;;;;;5027603;28;20114;-38
2023/03/12 03:06:04;;;;;;;1.80;1.70;;;;;;;;;;5023484;28;20125;-39
2023/03/12 03:08:29;;;;;;;3.28;1.65;;;;;;;;;;5027542;28;20045;-38
2023/03/12 03:10:54;;;;;;;3.47;1.80;;;;;;;;;;5031137;28;20026;-39
2023/03/12 03:13:20;;;;;;;2.95;1.65;;;;;;;;;;5035531;28;20033;-38
2023/03/12 03:15:48;;;;;;;1.80;1.70;;;;;;;;;;5020966;28;20025;-39
2023/03/12 03:18:13;;;;;;;1.88;1.77;;;;;;;;;;5033477;28;20045;-39
2023/03/12 03:21:06;;;;;;;1.88;1.77;;;;;;;;;;5037453;28;20622;-38
2023/03/12 03:23:32;;;;;;;1.98;1.85;;;;;;;;;;5033060;28;20041;-38
2023/03/12 03:25:58;;;;;;;2.00;1.80;;;;;;;;;;5036837;28;20121;-39
2023/03/12 03:28:25;;;;;;;1.63;1.55;;;;;;;;;;5040642;28;20112;-39
2023/03/12 03:31:00;;;;;;;1.85;1.75;;;;;;;;;;5038113;28;20086;-39
2023/03/12 03:33:32;;;;;;;1.77;1.60;;;;;;;;;;5039705;28;20072;-41
2023/03/12 03:36:00;;;;;;;1.80;1.52;;;;;;;;;;5037333;28;20035;-37
2023/03/12 03:38:27;;;;;;;2.25;1.70;;;;;;;;;;5036581;28;20108;-38
2023/03/12 03:40:53;;;;;;;1.70;1.60;;;;;;;;;;5032682;28;20113;-38
2023/03/12 03:43:18;;;;;;;1.77;1.67;;;;;;;;;;5042411;28;20136;-38
2023/03/12 03:45:43;;;;;;;1.63;1.52;;;;;;;;;;5030071;28;20325;-41
2023/03/12 03:48:10;;;;;;;2.70;1.77;;;;;;;;;;5036277;28;20041;-38
2023/03/12 03:50:40;;;;;;;2.40;1.40;;;;;;;;;;5033517;28;20029;-38
2023/03/12 03:53:19;;;;;;;1.42;1.33;;;;;;;;;;5034817;28;20099;-38
2023/03/12 03:55:45;;;;;;;1.45;1.35;;;;;;;;;;5032484;28;20530;-38
2023/03/12 03:58:10;;;;;;;1.70;1.60;;;;;;;;;;5040004;28;20041;-39
2023/03/12 04:00:36;;;;;;;1.65;1.55;;;;;;;;;;5033012;28;20035;-38
2023/03/12 04:03:02;;;;;;;1.60;1.50;;;;;;;;;;5033478;28;20060;-39
2023/03/12 04:05:28;;;;;;;1.50;1.40;;;;;;;;;;5036952;28;20126;-38
2023/03/12 04:07:54;;;;;;;1.20;1.20;;;;;;;;;;5032581;28;20037;-38
2023/03/12 04:10:21;;;;;;;1.50;1.40;;;;;;;;;;5040743;28;20033;-41
2023/03/12 04:12:46;;;;;;;1.50;1.40;;;;;;;;;;5034313;28;20087;-38
2023/03/12 04:15:12;;;;;;;1.40;1.35;;;;;;;;;;5036478;28;20625;-39
2023/03/12 04:17:37;;;;;;;1.63;1.52;;;;;;;;;;5036222;28;20444;-38
2023/03/12 04:20:12;;;;;;;1.80;1.40;;;;;;;;;;5033919;28;20604;-39
2023/03/12 04:22:38;;;;;;;1.45;1.35;;;;;;;;;;5028872;28;21913;-39
2023/03/12 04:25:06;;;;;;;1.55;1.42;;;;;;;;;;5036414;28;20021;-39
2023/03/12 04:27:32;;;;;;;1.27;1.23;;;;;;;;;;5031577;28;20045;-38
2023/03/12 04:29:57;;;;;;;1.42;1.33;;;;;;;;;;5030051;28;20359;-38
2023/03/12 04:32:28;;;;;;;1.77;1.40;;;;;;;;;;5035184;28;20044;-39
2023/03/12 04:34:54;;;;;;;1.60;1.40;;;;;;;;;;5054138;28;20061;-38
2023/03/12 04:37:19;;;;;;;1.95;1.00;;;;;;;;;;5031315;28;20071;-39
2023/03/12 04:39:45;;;;;;;2.00;1.00;;;;;;;;;;5035668;28;20404;-38
2023/03/12 04:42:10;;;;;;;1.02;1.02;;;;;;;;;;5029625;28;20103;-38
2023/03/12 04:44:51;;;;;;;1.30;1.20;;;;;;;;;;5034741;28;20037;-38
2023/03/12 04:47:16;;;;;;;1.10;1.10;;;;;;;;;;5028500;28;20381;-38
2023/03/12 04:49:42;;;;;;;1.00;1.00;;;;;;;;;;5032773;28;20083;-38
2023/03/12 04:52:16;;;;;;;1.77;1.10;;;;;;;;;;5035690;28;20094;-38
2023/03/12 04:54:42;;;;;;;3.28;1.15;;;;;;;;;;5029563;28;20033;-39
2023/03/12 04:57:08;;;;;;;0.85;0.82;;;;;;;;;;5033227;28;20086;-38
2023/03/12 04:59:33;;;;;;;1.10;1.00;;;;;;;;;;5038603;28;20129;-39
2023/03/12 05:01:58;;;;;;;0.82;0.82;;;;;;;;;;5030685;28;20043;-38
2023/03/12 05:04:24;;;;;;;3.15;1.05;;;;;;;;;;5035042;28;20123;-38
2023/03/12 05:06:49;;;;;;;0.90;0.90;;;;;;;;;;5037581;28;20033;-41
2023/03/12 05:09:14;;;;;;;0.90;0.90;;;;;;;;;;5030468;28;20036;-38
2023/03/12 05:11:40;;;;;;;1.00;1.00;;;;;;;;;;5036563;28;20052;-39
2023/03/12 05:14:05;;;;;;;1.15;1.10;;;;;;;;;;5033771;28;20045;-41
2023/03/12 05:16:34;;;;;;;1.05;1.05;;;;;;;;;;5035582;28;20045;-38
2023/03/12 05:19:01;;;;;;;1.88;1.10;;;;;;;;;;5036785;28;20071;-39
2023/03/12 05:21:27;;;;;;;1.00;1.00;;;;;;;;;;5033121;28;20632;-38
2023/03/12 05:23:52;;;;;;;1.25;1.10;;;;;;;;;;5029535;28;20053;-38
2023/03/12 05:26:30;;;;;;;2.58;1.02;;;;;;;;;;5032916;28;20057;-39
2023/03/12 05:28:57;;;;;;;1.10;1.10;;;;;;;;;;5033962;28;20028;-38
2023/03/12 05:31:22;;;;;;;1.00;0.82;;;;;;;;;;5036442;28;20135;-38
2023/03/12 05:33:48;;;;;;;1.33;1.08;;;;;;;;;;5034033;28;20530;-38
2023/03/12 05:36:16;;;;;;;1.23;1.05;;;;;;;;;;5030294;28;20498;-38
2023/03/12 05:38:42;;;;;;;1.00;1.00;;;;;;;;;;5034970;28;20032;-38
2023/03/12 05:41:25;;;;;;;1.00;1.00;;;;;;;;;;5034037;28;20033;-38
2023/03/12 05:43:55;;;;;;;1.05;1.05;;;;;;;;;;5029942;28;20140;-39
2023/03/12 05:46:21;;;;;;;1.00;0.90;;;;;;;;;;5033266;28;20543;-38
2023/03/12 05:48:46;;;;;;;1.08;1.08;;;;;;;;;;5030355;28;20025;-39
2023/03/12 05:51:12;;;;;;;1.58;1.30;;;;;;;;;;5034224;28;20029;-38
2023/03/12 05:53:37;;;;;;;4.80;2.80;;;;;;;;;;5023009;28;20020;-38
2023/03/12 05:56:04;;;;;;;2.70;2.50;;;;;;;;;;5028187;28;20377;-39
2023/03/12 05:58:31;;;;;;;2.60;2.30;;;;;;;;;;5031929;28;20371;-39
2023/03/12 06:00:56;;;;;;;2.60;2.40;;;;;;;;;;5037154;28;20481;-38
2023/03/12 06:03:27;;;;;;;1.60;1.50;;;;;;;;;;5031215;28;20083;-40
2023/03/12 06:05:56;;;;;;;1.23;1.23;;;;;;;;;;5035729;28;20496;-39
2023/03/12 06:08:27;;;;;;;1.13;1.08;;;;;;;;;;5028755;28;20075;-39
2023/03/12 06:10:55;;;;;;;1.93;1.30;;;;;;;;;;5028914;28;20117;-38
2023/03/12 06:13:30;;;;;;;5.30;1.10;;;;;;;;;;5035842;28;20877;-39
2023/03/12 06:16:10;;;;;;;1.40;1.30;;;;;;;;;;5034317;28;20032;-40
2023/03/12 06:18:36;;;;;;;1.20;1.20;;;;;;;;;;5031916;28;20124;-39
2023/03/12 06:21:16;;;;;;;1.48;1.38;;;;;;;;;;5033325;28;20036;-39
2023/03/12 06:23:43;;;;;;;1.95;1.20;;;;;;;;;;5039546;28;20059;-39
2023/03/12 06:26:20;;;;;;;1.20;1.10;;;;;;;;;;5028080;28;20031;-38
2023/03/12 06:28:46;;;;;;;1.00;1.00;;;;;;;;;;5033842;28;20494;-39
2023/03/12 06:31:12;;;;;;;1.30;0.90;;;;;;;;;;5034270;28;20561;-38
2023/03/12 06:33:37;;;;;;;1.67;1.00;;;;;;;;;;5035621;28;20111;-38
2023/03/12 06:36:05;;;;;;;1.13;1.13;;;;;;;;;;5032020;28;20040;-38
2023/03/12 06:38:34;;;;;;;0.90;0.90;;;;;;;;;;5046969;28;20049;-41
2023/03/12 06:41:03;;;;;;;0.75;0.73;;;;;;;;;;5033087;28;20040;-37
2023/03/12 06:43:36;;;;;;;1.10;1.10;;;;;;;;;;5034092;28;20026;-38
2023/03/12 06:46:03;;;;;;;3.10;1.10;;;;;;;;;;5029137;28;20545;-38
2023/03/12 06:48:35;;;;;;;1.13;1.00;;;;;;;;;;5032656;28;20034;-38
2023/03/12 06:51:11;;;;;;;0.85;0.85;;;;;;;;;;5032573;28;20018;-39
2023/03/12 06:53:40;;;;;;;1.50;1.30;;;;;;;;;;5034830;28;20010;-38
2023/03/12 06:56:06;;;;;;;1.23;0.70;;;;;;;;;;5036756;28;20428;-38
2023/03/12 06:58:40;;;;;;;1.52;0.90;;;;;;;;;;5031952;28;20035;-38
2023/03/12 07:01:09;;;;;;;1.05;1.00;;;;;;;;;;5038846;28;20251;-38
2023/03/12 07:03:34;;;;;;;2.00;1.38;;;;;;;;;;5036514;28;20056;-38
2023/03/12 07:06:00;;;;;;;1.38;0.93;;;;;;;;;;5030217;28;20486;-38
2023/03/12 07:08:33;;;;;;;1.13;1.02;;;;;;;;;;5035239;28;20033;-38
2023/03/12 07:11:02;;;;;;;1.30;0.95;;;;;;;;;;5035897;28;20028;-38
2023/03/12 07:13:28;;;;;;;1.20;1.10;;;;;;;;;;5032596;28;20116;-39
2023/03/12 07:15:53;;;;;;;1.27;1.02;;;;;;;;;;5032597;28;20168;-38
2023/03/12 07:18:19;;;;;;;0.95;0.90;;;;;;;;;;5033849;28;20109;-39
2023/03/12 07:20:46;;;;;;;0.80;0.80;;;;;;;;;;5042257;28;20028;-39
2023/03/12 07:23:13;;;;;;;1.52;1.13;;;;;;;;;;5032500;28;20053;-38
2023/03/12 07:25:48;;;;;;;1.00;0.90;;;;;;;;;;5033080;28;20040;-41
2023/03/12 07:28:14;;;;;;;1.70;0.80;;;;;;;;;;5034937;28;20045;-39
2023/03/12 07:30:40;;;;;;;1.85;1.27;;;;;;;;;;5035148;28;20548;-38
2023/03/12 07:33:08;;;;;;;2.55;1.30;;;;;;;;;;5040348;28;20044;-38
2023/03/12 07:35:34;;;;;;;1.02;1.02;;;;;;;;;;5037319;28;20108;-38
2023/03/12 07:38:01;;;;;;;1.08;1.05;;;;;;;;;;5031825;28;20046;-38
2023/03/12 07:40:27;;;;;;;1.58;1.13;;;;;;;;;;5036905;28;20033;-38
2023/03/12 07:42:52;;;;;;;1.52;1.17;;;;;;;;;;5034636;28;20033;-38
2023/03/12 07:45:19;;;;;;;1.88;1.20;;;;;;;;;;5037086;28;20433;-38
2023/03/12 07:47:45;;;;;;;1.35;1.05;;;;;;;;;;5038210;28;20075;-38
2023/03/12 07:50:20;;;;;;;1.75;1.25;;;;;;;;;;5038100;28;20470;-39
2023/03/12 07:52:46;;;;;;;1.27;0.85;;;;;;;;;;5021208;28;20076;-40
2023/03/12 07:55:12;;;;;;;1.23;1.08;;;;;;;;;;5021588;28;20053;-39
2023/03/12 07:57:37;;;;;;;0.88;0.77;;;;;;;;;;5030087;28;20110;-39
2023/03/12 08:00:06;;;;;;;1.70;1.20;;;;;;;;;;5030765;28;20061;-39
2023/03/12 08:02:40;;;;;;;1.13;0.90;;;;;;;;;;5032064;28;20136;-39
2023/03/12 08:05:06;;;;;;;0.93;0.80;;;;;;;;;;5015710;28;20061;-40
2023/03/12 08:07:33;;;;;;;2.03;1.30;;;;;;;;;;5019016;28;20152;-39
2023/03/12 08:10:01;;;;;;;0.85;0.80;;;;;;;;;;5029736;28;20114;-42
2023/03/12 08:12:28;;;;;;;1.10;1.00;;;;;;;;;;5029059;28;20053;-41
2023/03/12 08:14:56;;;;;;;1.25;0.90;;;;;;;;;;5028491;28;20132;-39
2023/03/12 08:17:22;;;;;;;1.58;0.68;;;;;;;;;;5020700;28;20163;-42
2023/03/12 08:19:47;;;;;;;1.55;1.13;;;;;;;;;;5028693;28;20087;-39
2023/03/12 08:22:21;;;;;;;2.20;1.02;;;;;;;;;;5030613;28;20038;-39
2023/03/12 08:24:47;;;;;;;1.98;0.80;;;;;;;;;;5012928;28;20063;-39
2023/03/12 08:27:15;;;;;;;1.42;1.10;;;;;;;;;;5023472;28;20041;-39
2023/03/12 08:29:41;;;;;;;1.20;1.00;;;;;;;;;;5024778;28;20030;-39
2023/03/12 08:32:09;;;;;;;1.58;1.48;;;;;;;;;;5036061;28;20079;-38
2023/03/12 08:34:35;;;;;;;1.48;1.10;;;;;;;;;;5034690;28;20041;-38
2023/03/12 08:37:00;;;;;;;1.38;1.08;;;;;;;;;;5015590;28;20036;-43
2023/03/12 08:39:26;;;;;;;5.95;1.13;;;;;;;;;;5032732;28;20065;-39
2023/03/12 08:41:54;;;;;;;0.90;0.90;;;;;;;;;;5025873;28;20057;-38
2023/03/12 08:44:23;;;;;;;2.97;1.25;;;;;;;;;;5019297;28;20398;-39
2023/03/12 08:46:49;;;;;;;1.58;1.00;;;;;;;;;;5029019;28;20056;-39
2023/03/12 08:49:14;;;;;;;1.33;1.08;;;;;;;;;;5032594;28;20022;-40
2023/03/12 08:51:39;;;;;;;2.65;1.20;;;;;;;;;;5032762;28;20099;-39
2023/03/12 08:54:05;;;;;;;1.92;0.98;;;;;;;;;;5021205;28;20696;-39
2023/03/12 08:56:31;;;;;;;3.53;1.10;;;;;;;;;;5024881;28;20033;-39
2023/03/12 08:59:06;;;;;;;1.23;1.00;;;;;;;;;;5032182;28;20615;-39
2023/03/12 09:01:31;;;;;;;1.55;1.10;;;;;;;;;;5024909;28;20061;-39
2023/03/12 09:03:56;;;;;;;2.35;1.42;;;;;;;;;;5027109;28;20037;-40
2023/03/12 09:06:27;;;;;;;3.40;1.40;;;;;;;;;;5030285;28;20049;-40
2023/03/12 09:08:53;;;;;;;4.28;1.63;;;;;;;;;;5017280;28;20033;-41
2023/03/12 09:11:24;;;;;;;1.50;1.40;;;;;;;;;;5025764;28;20056;-40
2023/03/12 09:13:50;;;;;;;2.85;1.83;;;;;;;;;;5022743;28;20025;-39
2023/03/12 09:16:15;;;;;;;2.22;1.23;;;;;;;;;;5031219;28;20045;-40
2023/03/12 09:18:41;;;;;;;1.45;1.35;;;;;;;;;;5029133;28;20040;-39
2023/03/12 09:21:06;;;;;;;1.73;1.20;;;;;;;;;;5031286;28;20029;-39
2023/03/12 09:23:40;;;;;;;2.28;1.00;;;;;;;;;;5021401;28;20444;-40
2023/03/12 09:26:09;;;;;;;1.38;0.82;;;;;;;;;;5023386;28;20481;-40
2023/03/12 09:28:48;;;;;;;1.45;0.90;;;;;;;;;;5033404;28;20046;-40
2023/03/12 09:31:13;;;;;;;1.00;0.90;;;;;;;;;;5031902;28;20079;-42
2023/03/12 09:33:39;;;;;;;1.98;1.10;;;;;;;;;;5031849;28;20030;-39
2023/03/12 09:36:05;;;;;;;1.40;0.80;;;;;;;;;;5020105;28;20033;-40
2023/03/12 09:38:31;;;;;;;0.75;0.70;;;;;;;;;;5018556;28;20037;-39
2023/03/12 09:41:11;;;;;;;8.07;0.82;;;;;;;;;;5017045;28;20022;-38
2023/03/12 09:44:15;;;;;;;1.15;0.80;;;;;;;;;;5021622;28;20065;-40
2023/03/12 09:46:49;;;;;;;3.13;1.23;;;;;;;;;;5032155;28;20041;-39
2023/03/12 09:49:49;;;;;;;1.27;0.82;;;;;;;;;;5028398;28;20515;-40
2023/03/12 09:52:49;;;;;;;0.98;0.60;;;;;;;;;;4992171;28;20069;-42
2023/03/12 09:55:26;;;;;;;1.27;0.65;;;;;;;;;;4979422;28;20129;-40
2023/03/12 09:57:53;;;;;;;1.77;0.60;;;;;;;;;;4986705;28;20038;-40
2023/03/12 10:00:32;;;;;;;5.55;0.90;;;;;;;;;;4993366;28;20061;-40
2023/03/12 10:03:39;;;;;;;2.30;1.05;;;;;;;;;;4991333;28;20487;-40
2023/03/12 10:06:13;;;;;;;3.05;1.08;;;;;;;;;;4955117;28;20026;-42
2023/03/12 10:09:06;;;;;;;1.45;0.95;;;;;;;;;;4954707;28;20054;-42
2023/03/12 10:11:31;;;;;;;;;;;;;;;;;;4952876;28;20109;-43
2023/03/12 10:14:15;;;;;;;1.75;0.82;;;;;;;;;;4953464;28;19976;-39
2023/03/12 10:17:05;;;;;;;1.25;0.98;;;;;;;;;;4948349;28;20043;-39
2023/03/12 10:20:00;;;;;;;4.85;0.77;;;;;;;;;;4942878;28;20175;-40
2023/03/12 10:22:44;;;;;;;1.33;0.70;;;;;;;;;;4948611;28;20053;-41
2023/03/12 10:25:21;;;;;;;0.50;0.47;;;;;;;;;;4942867;28;20074;-39
2023/03/12 10:27:47;;;;;;;1.60;0.63;;;;;;;;;;4950679;28;20077;-40
2023/03/12 10:30:23;;;;;;;1.65;0.57;;;;;;;;;;5003476;28;20113;-40
2023/03/12 10:32:52;;;;;;;0.90;0.50;;;;;;;;;;4998864;28;20053;-40
2023/03/12 10:35:29;;;;;;;2.08;0.80;;;;;;;;;;5004983;28;20076;-39
2023/03/12 10:38:03;;;;;;;2.38;0.63;;;;;;;;;;5003016;28;20142;-40
2023/03/12 10:40:35;;;;;;;0.50;0.50;;;;;;;;;;5021632;28;20604;-42
2023/03/12 10:43:02;;;;;;;5.68;0.98;;;;;;;;;;5023684;28;20045;-39
2023/03/12 10:45:39;;;;;;;0.95;0.88;;;;;;;;;;5022184;28;20048;-40
2023/03/12 10:48:07;;;;;;;3.92;2.10;;;;;;;;;;5025826;28;20033;-40
2023/03/12 10:50:56;;;;;;;1.35;0.40;;;;;;;;;;5030204;28;20390;-40
2023/03/12 10:53:32;;;;;;;0.55;0.55;;;;;;;;;;5026155;28;20136;-40
2023/03/12 10:56:20;;;;;;;5.22;0.90;;;;;;;;;;5022279;28;20020;-39
2023/03/12 10:58:58;;;;;;;2.22;1.30;;;;;;;;;;5022522;28;20049;-39
2023/03/12 11:01:27;;;;;;;6.60;0.80;;;;;;;;;;5026492;28;20048;-40
2023/03/12 11:04:08;;;;;;;1.50;1.35;;;;;;;;;;5030215;28;20496;-39
2023/03/12 11:06:33;;;;;;;3.07;1.60;;;;;;;;;;5032217;28;20513;-39
2023/03/12 11:09:18;;;;;;;2.30;2.10;;;;;;;;;;5026355;28;20426;-40
2023/03/12 11:11:48;;;;;;;2.05;0.60;;;;;;;;;;5028017;28;20182;-40
2023/03/12 11:14:26;;;;;;;2.03;0.70;;;;;;;;;;5026081;28;20025;-40
2023/03/12 11:16:53;;;;;;;2.45;0.63;;;;;;;;;;5022197;28;20041;-39
2023/03/12 11:19:33;;;;;;;1.63;0.40;;;;;;;;;;5033226;28;20045;-40
2023/03/12 11:22:10;;;;;;;0.50;0.40;;;;;;;;;;5034830;28;20041;-39
2023/03/12 11:24:53;;;;;;;3.63;0.57;;;;;;;;;;5029918;28;20034;-39
2023/03/12 11:27:53;;;;;;;1.17;1.10;;;;;;;;;;5034708;28;20042;-40
2023/03/12 11:30:49;;;;;;;0.90;0.90;;;;;;;;;;5023030;28;20091;-41
2023/03/12 11:33:14;;;;;;;0.50;0.50;;;;;;;;;;5032353;28;20713;-43
2023/03/12 11:36:08;;;;;;;0.50;0.50;;;;;;;;;;5028814;28;20033;-40
2023/03/12 11:38:49;;;;;;;1.95;0.65;;;;;;;;;;5039733;28;20128;-42
2023/03/12 11:41:17;;;;;;;0.60;0.32;;;;;;;;;;5028231;28;20021;-39
2023/03/12 11:44:23;;;;;;;1.17;0.85;;;;;;;;;;5037801;28;20025;-39
2023/03/12 11:46:59;;;;;;;1.00;0.52;;;;;;;;;;5032700;28;20037;-41
2023/03/12 11:49:55;;;;;;;0.98;0.50;;;;;;;;;;5035646;28;20068;-39
2023/03/12 11:52:36;;;;;;;3.25;0.68;;;;;;;;;;5035099;28;20044;-40
2023/03/12 11:55:10;;;;;;;0.65;0.65;;;;;;;;;;5034349;28;20036;-43
2023/03/12 11:58:18;;;;;;;1.88;0.50;;;;;;;;;;5034087;28;20128;-40
2023/03/12 12:00:59;;;;;;;7.97;0.50;;;;;;;;;;4970896;28;20146;-39
2023/03/12 12:03:54;;;;;;;0.70;0.70;;;;;;;;;;4966400;28;20049;-39
2023/03/12 12:06:30;;;;;;;1.75;1.65;;;;;;;;;;4969442;28;20050;-40
2023/03/12 12:09:20;;;;;;;0.93;0.68;;;;;;;;;;4973273;28;20043;-39
2023/03/12 12:12:07;;;;;;;0.52;0.52;;;;;;;;;;4979823;28;20042;-40
2023/03/12 12:14:57;;;;;;;2.30;0.50;;;;;;;;;;4973699;28;20122;-42
2023/03/12 12:17:59;;;;;;;0.40;0.40;;;;;;;;;;4978319;28;20131;-41
2023/03/12 12:20:36;;;;;;;0.57;0.45;;;;;;;;;;4965786;28;20191;-41
2023/03/12 12:23:36;;;;;;;0.77;0.60;;;;;;;;;;4960855;28;20049;-40
2023/03/12 12:26:04;;;;;;;1.08;1.05;;;;;;;;;;4969034;28;20057;-40
2023/03/12 12:28:58;;;;;;;0.15;0.15;;;;;;;;;;4982796;28;20505;-39
2023/03/12 12:31:55;;;;;;;1.73;0.52;;;;;;;;;;4972631;28;20039;-42
2023/03/12 12:34:32;;;;;;;1.77;0.60;;;;;;;;;;4967858;28;20096;-39
2023/03/12 12:37:30;;;;;;;3.45;1.20;;;;;;;;;;5003999;28;20558;-39
2023/03/12 12:40:07;;;;;;;5.90;3.25;;;;;;;;;;5035914;28;20038;-39
2023/03/12 12:42:39;;;;;;;1.48;0.77;;;;;;;;;;5032594;28;20493;-40
2023/03/12 12:45:09;;;;;;;9.20;8.40;;;;;;;;;;5032384;28;20069;-40
2023/03/12 12:47:50;;;;;;;0.77;0.77;;;;;;;;;;5033310;28;20103;-39
2023/03/12 12:50:27;;;;;;;0.70;0.70;;;;;;;;;;5037146;28;20083;-39
2023/03/12 12:53:02;;;;;;;5.03;3.33;;;;;;;;;;5033648;28;20096;-39
2023/03/12 12:55:39;;;;;;;2.58;1.60;;;;;;;;;;5029066;28;20091;-39
2023/03/12 12:58:18;;;;;;;0.17;0.17;;;;;;;;;;5033171;28;20041;-40
2023/03/12 13:01:03;;;;;;;1.88;1.63;;;;;;;;;;5033803;28;20167;-41
2023/03/12 13:03:29;;;;;;;0.60;0.60;;;;;;;;;;5031986;28;20611;-39
2023/03/12 13:06:10;;;;;;;6.40;1.25;;;;;;;;;;5034105;28;20028;-40
2023/03/12 13:08:41;;;;;;;1.85;0.60;;;;;;;;;;5033134;28;20057;-41
2023/03/12 13:11:30;;;;;;;2.50;1.67;;;;;;;;;;5027606;28;20113;-40
2023/03/12 13:14:01;;;;;;;2.63;1.42;;;;;;;;;;5033444;28;20049;-39
2023/03/12 13:16:32;;;;;;;0.63;0.40;;;;;;;;;;5029328;28;20104;-40
2023/03/12 13:19:07;;;;;;;0.93;0.93;;;;;;;;;;5031658;28;20033;-40
2023/03/12 13:21:50;;;;;;;0.73;0.43;;;;;;;;;;5029150;28;20083;-40
2023/03/12 13:24:23;;;;;;;0.57;0.40;;;;;;;;;;5030594;28;20037;-40
2023/03/12 13:27:07;;;;;;;0.63;0.40;;;;;;;;;;5022920;28;20067;-39
2023/03/12 13:29:32;;;;;;;0.47;0.47;;;;;;;;;;5028274;28;20127;-39
2023/03/12 13:31:58;;;;;;;0.55;0.30;;;;;;;;;;5031699;28;20429;-39
2023/03/12 13:34:23;;;;;;;0.30;0.30;;;;;;;;;;5030582;28;20091;-39
2023/03/12 13:37:00;;;;;;;0.50;0.45;;;;;;;;;;5031886;28;20047;-39
2023/03/12 13:39:35;;;;;;;0.32;0.32;;;;;;;;;;5034000;28;20034;-39
2023/03/12 13:42:22;;;;;;;0.50;0.50;;;;;;;;;;5034230;28;20071;-41
2023/03/12 13:44:48;;;;;;;0.50;0.50;;;;;;;;;;5030517;28;20056;-40
2023/03/12 13:47:28;;;;;;;0.50;0.50;;;;;;;;;;5030909;28;20487;-39
2023/03/12 13:50:07;;;;;;;0.38;0.32;;;;;;;;;;5035473;28;20478;-40
2023/03/12 13:52:38;;;;;;;0.45;0.40;;;;;;;;;;5030973;28;20108;-39
2023/03/12 13:55:13;;;;;;;0.60;0.50;;;;;;;;;;5033266;28;20060;-40
2023/03/12 13:57:40;;;;;;;0.95;0.55;;;;;;;;;;5031728;28;20071;-40
2023/03/12 14:00:18;;;;;;;0.20;0.20;;;;;;;;;;5027868;28;20124;-39
2023/03/12 14:02:49;;;;;;;2.40;0.60;;;;;;;;;;5032157;28;20041;-39
2023/03/12 14:05:15;;;;;;;0.55;0.28;;;;;;;;;;5032726;28;20028;-39
2023/03/12 14:08:09;;;;;;;2.90;0.43;;;;;;;;;;5032205;28;20040;-39
2023/03/12 14:10:38;;;;;;;0.50;0.50;;;;;;;;;;5033115;28;20075;-39
2023/03/12 14:13:11;;;;;;;0.52;0.52;;;;;;;;;;5038984;28;20055;-39
2023/03/12 14:16:07;;;;;;;0.55;0.52;;;;;;;;;;5029240;28;20422;-40
2023/03/12 14:18:35;;;;;;;0.38;0.38;;;;;;;;;;5030952;28;20037;-40
2023/03/12 14:21:07;;;;;;;0.35;0.35;;;;;;;;;;5031846;28;20029;-39
2023/03/12 14:23:39;;;;;;;1.95;0.30;;;;;;;;;;5029663;28;20176;-40
2023/03/12 14:26:19;;;;;;;2.35;0.50;;;;;;;;;;5033846;28;20044;-40
2023/03/12 14:28:48;;;;;;;0.30;0.30;;;;;;;;;;5028485;28;20456;-39
2023/03/12 14:31:20;;;;;;;0.85;0.40;;;;;;;;;;5032539;28;20101;-40
2023/03/12 14:34:06;;;;;;;1.27;0.50;;;;;;;;;;5028193;28;20091;-40
2023/03/12 14:36:43;;;;;;;0.45;0.38;;;;;;;;;;5024486;28;20049;-40
2023/03/12 14:39:30;;;;;;;0.30;0.30;;;;;;;;;;5029920;28;20049;-40
2023/03/12 14:42:03;;;;;;;2.70;0.73;;;;;;;;;;5037257;28;20092;-40
2023/03/12 14:44:40;;;;;;;0.50;0.50;;;;;;;;;;5027466;28;20118;-40
2023/03/12 14:47:10;;;;;;;0.20;0.20;;;;;;;;;;5030231;28;20045;-39
2023/03/12 14:49:41;;;;;;;0.43;0.40;;;;;;;;;;5030226;28;20478;-40
2023/03/12 14:52:09;;;;;;;0.30;0.30;;;;;;;;;;5032233;28;20044;-40
2023/03/12 14:54:35;;;;;;;1.45;0.30;;;;;;;;;;5034602;28;20491;-40
2023/03/12 14:57:00;;;;;;;0.40;0.40;;;;;;;;;;5036178;28;20053;-39
2023/03/12 14:59:37;;;;;;;0.88;0.40;;;;;;;;;;5032316;28;20040;-40
2023/03/12 15:02:12;;;;;;;0.73;0.30;;;;;;;;;;5026987;28;20496;-40
2023/03/12 15:04:38;;;;;;;2.65;0.40;;;;;;;;;;5030993;28;20033;-41
2023/03/12 15:07:08;;;;;;;0.20;0.20;;;;;;;;;;5035485;28;20053;-40
2023/03/12 15:09:35;;;;;;;0.85;0.30;;;;;;;;;;5032559;28;20923;-39
2023/03/12 15:12:24;;;;;;;0.70;0.30;;;;;;;;;;5030581;28;20034;-40